MPH9117 EHAM-LPPT
Flight info
| Callsign | MPH9117 |
|---|---|
| Flight time | 2h 37m |
| Altitude | 23000 |
| Route | WOODY N872 CIV/N0472F390 N872 MEDIL DCT KOVIN DCT NIDUV DCT KIHVI UN872 DITAL/N0480F410 UN872 TERPO/N0467F350 UN872 ERIGA UZ218 FUJTI/N0486F410 DCT ATLEN DCT ABUPI DCT XAMAX |
| Aircraft | MD11/H-SDE1E2E3FGHIJ2J3J4J5M1RWXY/LB1D1 |
Departure
| Time | 2026-05-04 09:37 |
|---|---|
| Airport | Amsterdam Airport Schiphol (EHAM) |
Arrival
| Time | 2026-05-04 12:15 |
|---|---|
| Airport | Lisbon Humberto Delgado Airport (LPPT) |
| Time | Latitude | Longitude | Altitude | Speed | Heading |
|---|---|---|---|---|---|
| 2026-05-04 09:08 | 52.31225 | 4.77165 | 6 ft | 0 kts | 183° |
| 2026-05-04 09:25 | 52.31234 | 4.77165 | 7 ft | 3 kts | 184° |
| 2026-05-04 09:25 | 52.31254 | 4.77168 | 8 ft | 3 kts | 185° |
| 2026-05-04 09:26 | 52.31274 | 4.77171 | 7 ft | 3 kts | 186° |
| 2026-05-04 09:26 | 52.31294 | 4.77174 | 7 ft | 3 kts | 187° |
| 2026-05-04 09:26 | 52.31314 | 4.77178 | 9 ft | 3 kts | 187° |
| 2026-05-04 09:26 | 52.31334 | 4.77183 | 9 ft | 3 kts | 187° |
| 2026-05-04 09:27 | 52.31350 | 4.77185 | 10 ft | 1 kts | 185° |
| 2026-05-04 09:27 | 52.31345 | 4.77184 | 10 ft | 2 kts | 187° |
| 2026-05-04 09:27 | 52.31326 | 4.77180 | 9 ft | 3 kts | 186° |
| 2026-05-04 09:27 | 52.31310 | 4.77186 | 9 ft | 3 kts | 156° |
| 2026-05-04 09:28 | 52.31301 | 4.77206 | 8 ft | 2 kts | 126° |
| 2026-05-04 09:28 | 52.31296 | 4.77221 | 7 ft | 3 kts | 118° |
| 2026-05-04 09:28 | 52.31293 | 4.77250 | 6 ft | 3 kts | 98° |
| 2026-05-04 09:28 | 52.31292 | 4.77283 | 6 ft | 3 kts | 92° |
| 2026-05-04 09:29 | 52.31291 | 4.77303 | 6 ft | 1 kts | 93° |
| 2026-05-04 09:32 | 52.31291 | 4.77317 | 6 ft | 3 kts | 94° |
| 2026-05-04 09:34 | 52.31534 | 4.77528 | 6 ft | 12 kts | 328° |
| 2026-05-04 09:34 | 52.31616 | 4.77507 | 6 ft | 12 kts | 10° |
| 2026-05-04 09:34 | 52.31688 | 4.77586 | 6 ft | 13 kts | 49° |
| 2026-05-04 09:34 | 52.31757 | 4.77682 | 6 ft | 13 kts | 23° |
| 2026-05-04 09:35 | 52.31849 | 4.77697 | 6 ft | 14 kts | 3° |
| 2026-05-04 09:35 | 52.31946 | 4.77707 | 6 ft | 14 kts | 6° |
| 2026-05-04 09:35 | 52.32035 | 4.77770 | 7 ft | 14 kts | 39° |
| 2026-05-04 09:35 | 52.32106 | 4.77871 | 7 ft | 11 kts | 48° |
| 2026-05-04 09:37 | 52.30917 | 4.77905 | 19 ft | 173 kts | 184° |
| 2026-05-04 09:37 | 52.29679 | 4.77789 | 1003 ft | 180 kts | 183° |
| 2026-05-04 09:38 | 52.28389 | 4.77686 | 2129 ft | 190 kts | 180° |
| 2026-05-04 09:38 | 52.27078 | 4.78025 | 3247 ft | 193 kts | 164° |
| 2026-05-04 09:38 | 52.25702 | 4.78697 | 3872 ft | 226 kts | 163° |
| 2026-05-04 09:38 | 52.24069 | 4.79515 | 4058 ft | 261 kts | 163° |
| 2026-05-04 09:39 | 52.22322 | 4.80378 | 5076 ft | 264 kts | 167° |
| 2026-05-04 09:39 | 52.20495 | 4.80615 | 6108 ft | 266 kts | 182° |
| 2026-05-04 09:39 | 52.18650 | 4.80444 | 7091 ft | 270 kts | 185° |
| 2026-05-04 09:39 | 52.16743 | 4.80178 | 8144 ft | 274 kts | 186° |
| 2026-05-04 09:40 | 52.14856 | 4.79900 | 9189 ft | 277 kts | 187° |
| 2026-05-04 09:40 | 52.12917 | 4.79615 | 10228 ft | 282 kts | 187° |
| 2026-05-04 09:40 | 52.10845 | 4.79308 | 10435 ft | 317 kts | 187° |
| 2026-05-04 09:40 | 52.08538 | 4.78970 | 10640 ft | 347 kts | 187° |
| 2026-05-04 09:41 | 52.07002 | 4.78750 | 11201 ft | 351 kts | 187° |
| 2026-05-04 09:42 | 51.89486 | 4.74721 | 17469 ft | 379 kts | 205° |
| 2026-05-04 09:43 | 51.87087 | 4.72881 | 18317 ft | 384 kts | 207° |
| 2026-05-04 09:43 | 51.84695 | 4.70938 | 19084 ft | 387 kts | 208° |
| 2026-05-04 09:43 | 51.82282 | 4.68969 | 19909 ft | 388 kts | 208° |
| 2026-05-04 09:43 | 51.79852 | 4.67011 | 20735 ft | 390 kts | 207° |
| 2026-05-04 09:44 | 51.77407 | 4.65065 | 21572 ft | 392 kts | 207° |
| 2026-05-04 09:44 | 51.74952 | 4.63132 | 22420 ft | 394 kts | 207° |
| 2026-05-04 09:44 | 51.72474 | 4.61193 | 23225 ft | 396 kts | 207° |
| 2026-05-04 09:46 | 51.54710 | 4.47471 | 27769 ft | 414 kts | 207° |
| 2026-05-04 09:46 | 51.52096 | 4.45462 | 28395 ft | 417 kts | 207° |
| 2026-05-04 09:46 | 51.49476 | 4.43450 | 28989 ft | 419 kts | 207° |
| 2026-05-04 09:47 | 51.46837 | 4.41426 | 29575 ft | 422 kts | 207° |
| 2026-05-04 09:47 | 51.44203 | 4.39408 | 30124 ft | 424 kts | 207° |
| 2026-05-04 09:49 | 51.25740 | 4.25371 | 34416 ft | 414 kts | 207° |
| 2026-05-04 09:49 | 51.23126 | 4.23382 | 34772 ft | 416 kts | 207° |
| 2026-05-04 09:49 | 51.21395 | 4.22066 | 34998 ft | 417 kts | 207° |
| 2026-05-04 09:51 | 51.06314 | 4.12756 | 36770 ft | 427 kts | 200° |
| 2026-05-04 09:51 | 51.03491 | 4.11236 | 37068 ft | 429 kts | 200° |
| 2026-05-04 09:51 | 51.00660 | 4.09703 | 37362 ft | 430 kts | 200° |
| 2026-05-04 09:51 | 50.97863 | 4.08181 | 37648 ft | 432 kts | 200° |
| 2026-05-04 09:52 | 50.94977 | 4.06606 | 37928 ft | 433 kts | 200° |
| 2026-05-04 09:52 | 50.92155 | 4.05065 | 38208 ft | 435 kts | 200° |
| 2026-05-04 09:52 | 50.89296 | 4.03500 | 38472 ft | 436 kts | 200° |
| 2026-05-04 09:52 | 50.86444 | 4.01828 | 38711 ft | 438 kts | 201° |
| 2026-05-04 09:53 | 50.83805 | 4.00179 | 38911 ft | 439 kts | 202° |
| 2026-05-04 09:53 | 50.78080 | 3.96491 | 38984 ft | 447 kts | 202° |
| 2026-05-04 09:54 | 50.72337 | 3.92787 | 38990 ft | 444 kts | 202° |
| 2026-05-04 09:54 | 50.66613 | 3.89125 | 38992 ft | 445 kts | 202° |
| 2026-05-04 09:55 | 50.60888 | 3.85482 | 38999 ft | 445 kts | 202° |
| 2026-05-04 09:55 | 50.55153 | 3.81758 | 38998 ft | 446 kts | 203° |
| 2026-05-04 09:56 | 50.49474 | 3.77894 | 39001 ft | 447 kts | 204° |
| 2026-05-04 09:56 | 50.43773 | 3.73990 | 39001 ft | 447 kts | 204° |
| 2026-05-04 09:57 | 50.38049 | 3.70089 | 39002 ft | 448 kts | 204° |
| 2026-05-04 09:57 | 50.32325 | 3.66207 | 39001 ft | 448 kts | 204° |
| 2026-05-04 09:58 | 50.26596 | 3.62332 | 39001 ft | 449 kts | 204° |
| 2026-05-04 09:58 | 50.20865 | 3.58458 | 39001 ft | 449 kts | 204° |
| 2026-05-04 10:00 | 49.98159 | 3.43200 | 38993 ft | 448 kts | 204° |
| 2026-05-04 10:04 | 49.58124 | 3.16682 | 38985 ft | 446 kts | 204° |
| 2026-05-04 10:04 | 49.52437 | 3.12875 | 38984 ft | 445 kts | 208° |
| 2026-05-04 10:05 | 49.47473 | 3.07348 | 38988 ft | 442 kts | 227° |
| 2026-05-04 10:05 | 49.44027 | 2.99522 | 38984 ft | 444 kts | 240° |
| 2026-05-04 10:06 | 49.41153 | 2.91121 | 38986 ft | 444 kts | 241° |
| 2026-05-04 10:06 | 49.38208 | 2.82776 | 38984 ft | 444 kts | 239° |
| 2026-05-04 10:08 | 49.28474 | 2.55637 | 38991 ft | 444 kts | 240° |
| 2026-05-04 10:08 | 49.25544 | 2.47306 | 38996 ft | 445 kts | 240° |
| 2026-05-04 10:09 | 49.22603 | 2.38983 | 38992 ft | 444 kts | 240° |
| 2026-05-04 10:09 | 49.19670 | 2.30753 | 38992 ft | 443 kts | 239° |
| 2026-05-04 10:10 | 49.16645 | 2.22513 | 38993 ft | 445 kts | 239° |
| 2026-05-04 10:10 | 49.13599 | 2.14269 | 38994 ft | 445 kts | 239° |
| 2026-05-04 10:11 | 49.10579 | 2.06098 | 38994 ft | 445 kts | 239° |
| 2026-05-04 10:11 | 49.07709 | 1.97719 | 38993 ft | 446 kts | 243° |
| 2026-05-04 10:12 | 49.05129 | 1.89104 | 38992 ft | 446 kts | 244° |
| 2026-05-04 10:12 | 49.02581 | 1.80461 | 38991 ft | 447 kts | 244° |
| 2026-05-04 10:13 | 49.00007 | 1.71837 | 38990 ft | 447 kts | 244° |
| 2026-05-04 10:13 | 48.97417 | 1.63232 | 38986 ft | 447 kts | 244° |
| 2026-05-04 10:14 | 48.94826 | 1.54665 | 38986 ft | 448 kts | 244° |
| 2026-05-04 10:16 | 48.84355 | 1.20335 | 38978 ft | 447 kts | 243° |
| 2026-05-04 10:16 | 48.81720 | 1.11771 | 38976 ft | 447 kts | 243° |
| 2026-05-04 10:17 | 48.79080 | 1.03222 | 38980 ft | 447 kts | 243° |
| 2026-05-04 10:19 | 48.66974 | 0.70484 | 38969 ft | 445 kts | 237° |
| 2026-05-04 10:19 | 48.63735 | 0.62500 | 38968 ft | 445 kts | 237° |
| 2026-05-04 10:20 | 48.60499 | 0.54505 | 38966 ft | 445 kts | 237° |
| 2026-05-04 10:20 | 48.57262 | 0.46527 | 38964 ft | 445 kts | 237° |
| 2026-05-04 10:21 | 48.54044 | 0.38619 | 38963 ft | 445 kts | 237° |
| 2026-05-04 10:21 | 48.50793 | 0.30658 | 38959 ft | 445 kts | 237° |
| 2026-05-04 10:22 | 48.45914 | 0.18751 | 38949 ft | 445 kts | 237° |
| 2026-05-04 10:23 | 48.42643 | 0.10799 | 38951 ft | 446 kts | 237° |
| 2026-05-04 10:25 | 48.28561 | -0.19825 | 38954 ft | 446 kts | 232° |
| 2026-05-04 10:25 | 48.24831 | -0.27271 | 38959 ft | 446 kts | 232° |
| 2026-05-04 10:26 | 48.21058 | -0.34691 | 38974 ft | 446 kts | 231° |
| 2026-05-04 10:26 | 48.17308 | -0.42045 | 38977 ft | 447 kts | 231° |
| 2026-05-04 10:27 | 48.13529 | -0.49447 | 38975 ft | 446 kts | 231° |
| 2026-05-04 10:27 | 48.09753 | -0.56827 | 38976 ft | 446 kts | 231° |
| 2026-05-04 10:28 | 48.05968 | -0.64206 | 38965 ft | 446 kts | 231° |
| 2026-05-04 10:28 | 48.02180 | -0.71569 | 38968 ft | 446 kts | 231° |
| 2026-05-04 10:29 | 47.98390 | -0.78918 | 38967 ft | 446 kts | 231° |
| 2026-05-04 10:29 | 47.94615 | -0.86217 | 38967 ft | 447 kts | 231° |
| 2026-05-04 10:30 | 47.90810 | -0.93553 | 38968 ft | 447 kts | 231° |
| 2026-05-04 10:30 | 47.86997 | -1.00886 | 38967 ft | 447 kts | 231° |
| 2026-05-04 10:31 | 47.83180 | -1.08206 | 38966 ft | 447 kts | 231° |
| 2026-05-04 10:32 | 47.69779 | -1.33633 | 38973 ft | 447 kts | 231° |
| 2026-05-04 10:33 | 47.65926 | -1.40906 | 38978 ft | 447 kts | 231° |
| 2026-05-04 10:33 | 47.62054 | -1.48134 | 38977 ft | 447 kts | 229° |
| 2026-05-04 10:34 | 47.57987 | -1.55038 | 38980 ft | 446 kts | 227° |
| 2026-05-04 10:34 | 47.53839 | -1.61862 | 38984 ft | 446 kts | 227° |
| 2026-05-04 10:35 | 47.49698 | -1.68682 | 38982 ft | 445 kts | 227° |
| 2026-05-04 10:35 | 47.45559 | -1.75515 | 38986 ft | 445 kts | 227° |
| 2026-05-04 10:36 | 47.41428 | -1.82324 | 38986 ft | 445 kts | 227° |
| 2026-05-04 10:36 | 47.37319 | -1.89081 | 38990 ft | 444 kts | 227° |
| 2026-05-04 10:37 | 47.32683 | -1.95045 | 38992 ft | 443 kts | 213° |
| 2026-05-04 10:37 | 47.27398 | -1.99767 | 38993 ft | 444 kts | 210° |
| 2026-05-04 10:39 | 47.09762 | -2.15258 | 38989 ft | 443 kts | 211° |
| 2026-05-04 10:40 | 47.04489 | -2.19957 | 38986 ft | 443 kts | 211° |
| 2026-05-04 10:40 | 46.99218 | -2.24641 | 38986 ft | 443 kts | 211° |
| 2026-05-04 10:41 | 46.93976 | -2.29287 | 38983 ft | 443 kts | 211° |
| 2026-05-04 10:41 | 46.88698 | -2.33953 | 38985 ft | 443 kts | 211° |
| 2026-05-04 10:42 | 46.83413 | -2.38602 | 38990 ft | 443 kts | 211° |
| 2026-05-04 10:42 | 46.78118 | -2.43247 | 38990 ft | 443 kts | 211° |
| 2026-05-04 10:43 | 46.72840 | -2.47882 | 38991 ft | 443 kts | 211° |
| 2026-05-04 10:45 | 46.51704 | -2.66361 | 38993 ft | 443 kts | 211° |
| 2026-05-04 10:45 | 46.46418 | -2.70956 | 38993 ft | 443 kts | 211° |
| 2026-05-04 10:46 | 46.41161 | -2.75515 | 38993 ft | 443 kts | 211° |
| 2026-05-04 10:46 | 46.35873 | -2.80090 | 39009 ft | 443 kts | 211° |
| 2026-05-04 10:47 | 46.30585 | -2.84656 | 39009 ft | 442 kts | 211° |
| 2026-05-04 10:47 | 46.25295 | -2.89237 | 38994 ft | 442 kts | 213° |
| 2026-05-04 10:49 | 46.06453 | -3.11925 | 38992 ft | 442 kts | 220° |
| 2026-05-04 10:50 | 46.01776 | -3.17641 | 38991 ft | 441 kts | 220° |
| 2026-05-04 10:52 | 45.83040 | -3.40391 | 39008 ft | 441 kts | 220° |
| 2026-05-04 10:52 | 45.78355 | -3.46049 | 39002 ft | 441 kts | 220° |
| 2026-05-04 10:54 | 45.59563 | -3.68595 | 39001 ft | 440 kts | 220° |
| 2026-05-04 10:56 | 45.40813 | -3.90834 | 39010 ft | 439 kts | 220° |
| 2026-05-04 10:57 | 45.36118 | -3.96391 | 39010 ft | 439 kts | 220° |
| 2026-05-04 10:57 | 45.31417 | -4.01941 | 39014 ft | 439 kts | 220° |
| 2026-05-04 10:58 | 45.26723 | -4.07469 | 39012 ft | 439 kts | 220° |
| 2026-05-04 10:58 | 45.22021 | -4.12996 | 39012 ft | 438 kts | 220° |
| 2026-05-04 10:59 | 45.17315 | -4.18514 | 39019 ft | 438 kts | 220° |
| 2026-05-04 10:59 | 45.12621 | -4.24006 | 39016 ft | 438 kts | 220° |
| 2026-05-04 11:00 | 45.07955 | -4.29455 | 39021 ft | 437 kts | 220° |
| 2026-05-04 11:02 | 44.89151 | -4.51218 | 39023 ft | 436 kts | 219° |
| 2026-05-04 11:05 | 44.53634 | -4.91305 | 39031 ft | 438 kts | 214° |
| 2026-05-04 11:06 | 44.48460 | -4.95828 | 39031 ft | 438 kts | 213° |
| 2026-05-04 11:06 | 44.43303 | -5.00284 | 39031 ft | 438 kts | 213° |
| 2026-05-04 11:10 | 44.07117 | -5.31811 | 39039 ft | 439 kts | 213° |
| 2026-05-04 11:12 | 43.86346 | -5.49716 | 39036 ft | 440 kts | 213° |
| 2026-05-04 11:12 | 43.81121 | -5.54164 | 39044 ft | 440 kts | 213° |
| 2026-05-04 11:13 | 43.75901 | -5.58611 | 39040 ft | 440 kts | 213° |
| 2026-05-04 11:13 | 43.70684 | -5.63061 | 39043 ft | 440 kts | 213° |
| 2026-05-04 11:16 | 43.44800 | -5.85031 | 39045 ft | 441 kts | 213° |
| 2026-05-04 11:16 | 43.39558 | -5.89453 | 39042 ft | 441 kts | 213° |
| 2026-05-04 11:17 | 43.34325 | -5.93858 | 39043 ft | 441 kts | 213° |
| 2026-05-04 11:19 | 43.13366 | -6.11400 | 39019 ft | 443 kts | 213° |
| 2026-05-04 11:19 | 43.08082 | -6.15773 | 39006 ft | 443 kts | 213° |
| 2026-05-04 11:20 | 43.02802 | -6.20151 | 39014 ft | 444 kts | 213° |
| 2026-05-04 11:20 | 42.97524 | -6.24529 | 39010 ft | 444 kts | 213° |
| 2026-05-04 11:22 | 42.78958 | -6.39867 | 39013 ft | 455 kts | 213° |
| 2026-05-04 11:22 | 42.76245 | -6.42100 | 39014 ft | 457 kts | 213° |
| 2026-05-04 11:23 | 42.70803 | -6.46569 | 39007 ft | 456 kts | 213° |
| 2026-05-04 11:25 | 42.51786 | -6.62115 | 39015 ft | 456 kts | 213° |
| 2026-05-04 11:25 | 42.47259 | -6.65799 | 39011 ft | 456 kts | 213° |
| 2026-05-04 11:27 | 42.22729 | -6.85602 | 39011 ft | 457 kts | 213° |
| 2026-05-04 11:28 | 42.17269 | -6.89998 | 39010 ft | 456 kts | 213° |
| 2026-05-04 11:28 | 42.11815 | -6.94379 | 39025 ft | 457 kts | 213° |
| 2026-05-04 11:29 | 42.06358 | -6.98754 | 39024 ft | 456 kts | 213° |
| 2026-05-04 11:29 | 42.00897 | -7.03122 | 39023 ft | 456 kts | 213° |
| 2026-05-04 11:33 | 41.62655 | -7.33281 | 39026 ft | 456 kts | 213° |
| 2026-05-04 11:33 | 41.57170 | -7.37531 | 39025 ft | 455 kts | 213° |
| 2026-05-04 11:34 | 41.51726 | -7.41746 | 39023 ft | 455 kts | 213° |
| 2026-05-04 11:34 | 41.46238 | -7.45985 | 39029 ft | 455 kts | 213° |
| 2026-05-04 11:35 | 41.40747 | -7.50219 | 39027 ft | 455 kts | 213° |
| 2026-05-04 11:35 | 41.35274 | -7.54430 | 39029 ft | 455 kts | 213° |
| 2026-05-04 11:36 | 41.29784 | -7.58646 | 39032 ft | 455 kts | 213° |
| 2026-05-04 11:36 | 41.24299 | -7.62851 | 39033 ft | 454 kts | 213° |
| 2026-05-04 11:37 | 41.18855 | -7.67015 | 39038 ft | 454 kts | 213° |
| 2026-05-04 11:37 | 41.13371 | -7.71202 | 39042 ft | 454 kts | 213° |
| 2026-05-04 11:38 | 41.07889 | -7.75378 | 39045 ft | 454 kts | 213° |
| 2026-05-04 11:38 | 41.02411 | -7.79538 | 39041 ft | 454 kts | 213° |
| 2026-05-04 11:39 | 40.96919 | -7.83680 | 39055 ft | 454 kts | 213° |
| 2026-05-04 11:41 | 40.77741 | -7.98159 | 39057 ft | 453 kts | 213° |
| 2026-05-04 11:41 | 40.72252 | -8.02289 | 39057 ft | 453 kts | 213° |
| 2026-05-04 11:42 | 40.66811 | -8.06375 | 39066 ft | 453 kts | 213° |
| 2026-05-04 11:42 | 40.61344 | -8.10472 | 38871 ft | 448 kts | 213° |
| 2026-05-04 11:42 | 40.58655 | -8.12481 | 38603 ft | 442 kts | 213° |
| 2026-05-04 11:43 | 40.55986 | -8.14476 | 38188 ft | 441 kts | 214° |
| 2026-05-04 11:43 | 40.53314 | -8.16473 | 37639 ft | 440 kts | 214° |
| 2026-05-04 11:43 | 40.50656 | -8.18458 | 37155 ft | 439 kts | 214° |
| 2026-05-04 11:43 | 40.48035 | -8.20412 | 36672 ft | 438 kts | 214° |
| 2026-05-04 11:44 | 40.45386 | -8.22387 | 36182 ft | 438 kts | 214° |
| 2026-05-04 11:44 | 40.42734 | -8.24361 | 35717 ft | 438 kts | 215° |
| 2026-05-04 11:44 | 40.40089 | -8.26329 | 35228 ft | 437 kts | 215° |
| 2026-05-04 11:44 | 40.37448 | -8.28291 | 34749 ft | 436 kts | 215° |
| 2026-05-04 11:45 | 40.34803 | -8.30254 | 34274 ft | 436 kts | 215° |
| 2026-05-04 11:45 | 40.32164 | -8.32212 | 33729 ft | 436 kts | 215° |
| 2026-05-04 11:45 | 40.29518 | -8.34165 | 33184 ft | 437 kts | 215° |
| 2026-05-04 11:45 | 40.26862 | -8.36120 | 32653 ft | 438 kts | 215° |
| 2026-05-04 11:46 | 40.24194 | -8.38084 | 32134 ft | 440 kts | 215° |
| 2026-05-04 11:46 | 40.21528 | -8.40048 | 31614 ft | 441 kts | 215° |
| 2026-05-04 11:46 | 40.18853 | -8.42020 | 31097 ft | 443 kts | 215° |
| 2026-05-04 11:46 | 40.16235 | -8.43950 | 30593 ft | 445 kts | 214° |
| 2026-05-04 11:47 | 40.13567 | -8.45917 | 30053 ft | 447 kts | 214° |
| 2026-05-04 11:47 | 40.10851 | -8.47916 | 29514 ft | 448 kts | 214° |
| 2026-05-04 11:47 | 40.08140 | -8.49908 | 29265 ft | 440 kts | 214° |
| 2026-05-04 11:47 | 40.05539 | -8.51806 | 29153 ft | 420 kts | 214° |
| 2026-05-04 11:48 | 40.03035 | -8.53675 | 29029 ft | 410 kts | 216° |
| 2026-05-04 11:48 | 39.98213 | -8.57592 | 28952 ft | 407 kts | 218° |
| 2026-05-04 11:49 | 39.93453 | -8.61566 | 28801 ft | 406 kts | 218° |
| 2026-05-04 11:49 | 39.88704 | -8.65517 | 28194 ft | 408 kts | 218° |
| 2026-05-04 11:49 | 39.86327 | -8.67482 | 27659 ft | 402 kts | 217° |
| 2026-05-04 11:50 | 39.83966 | -8.69429 | 27125 ft | 399 kts | 217° |
| 2026-05-04 11:50 | 39.81628 | -8.71356 | 26605 ft | 396 kts | 217° |
| 2026-05-04 11:50 | 39.79301 | -8.73273 | 26085 ft | 393 kts | 217° |
| 2026-05-04 11:50 | 39.77001 | -8.75167 | 25593 ft | 389 kts | 217° |
| 2026-05-04 11:51 | 39.74725 | -8.77038 | 25246 ft | 385 kts | 217° |
| 2026-05-04 11:51 | 39.72463 | -8.78898 | 25088 ft | 385 kts | 217° |
| 2026-05-04 11:51 | 39.70210 | -8.80748 | 25051 ft | 375 kts | 217° |
| 2026-05-04 11:51 | 39.68099 | -8.82471 | 25040 ft | 354 kts | 217° |
| 2026-05-04 11:52 | 39.66042 | -8.84154 | 25030 ft | 346 kts | 218° |
| 2026-05-04 11:52 | 39.64014 | -8.85823 | 25028 ft | 345 kts | 218° |
| 2026-05-04 11:52 | 39.61993 | -8.87488 | 25030 ft | 344 kts | 218° |
| 2026-05-04 11:52 | 39.59969 | -8.89156 | 25028 ft | 344 kts | 218° |
| 2026-05-04 11:53 | 39.57946 | -8.90820 | 25031 ft | 345 kts | 218° |
| 2026-05-04 11:53 | 39.55914 | -8.92489 | 25023 ft | 345 kts | 218° |
| 2026-05-04 11:53 | 39.53893 | -8.94148 | 25022 ft | 345 kts | 218° |
| 2026-05-04 11:53 | 39.51867 | -8.95808 | 25021 ft | 345 kts | 218° |
| 2026-05-04 11:55 | 39.37639 | -9.07430 | 25013 ft | 346 kts | 218° |
| 2026-05-04 11:55 | 39.35631 | -9.09066 | 25013 ft | 346 kts | 218° |
| 2026-05-04 11:56 | 39.33574 | -9.10740 | 25008 ft | 346 kts | 218° |
| 2026-05-04 11:56 | 39.31557 | -9.12382 | 25008 ft | 346 kts | 218° |
| 2026-05-04 11:56 | 39.29516 | -9.14041 | 25011 ft | 347 kts | 218° |
| 2026-05-04 11:56 | 39.27473 | -9.15698 | 25007 ft | 346 kts | 217° |
| 2026-05-04 11:57 | 39.25322 | -9.17164 | 24994 ft | 351 kts | 211° |
| 2026-05-04 11:57 | 39.23068 | -9.18402 | 24929 ft | 353 kts | 208° |
| 2026-05-04 11:57 | 39.20776 | -9.19562 | 24862 ft | 353 kts | 207° |
| 2026-05-04 11:57 | 39.18475 | -9.20703 | 24800 ft | 353 kts | 207° |
| 2026-05-04 11:58 | 39.16176 | -9.21845 | 24739 ft | 353 kts | 207° |
| 2026-05-04 11:58 | 39.13900 | -9.22981 | 24286 ft | 350 kts | 207° |
| 2026-05-04 11:58 | 39.11632 | -9.24120 | 23601 ft | 348 kts | 207° |
| 2026-05-04 11:58 | 39.09413 | -9.25238 | 22850 ft | 346 kts | 207° |
| 2026-05-04 11:59 | 39.07188 | -9.26361 | 22161 ft | 342 kts | 207° |
| 2026-05-04 11:59 | 39.04979 | -9.27476 | 21474 ft | 338 kts | 207° |
| 2026-05-04 11:59 | 39.02800 | -9.28577 | 20821 ft | 334 kts | 207° |
| 2026-05-04 11:59 | 39.00644 | -9.29667 | 20153 ft | 331 kts | 207° |
| 2026-05-04 12:00 | 38.98506 | -9.30747 | 19533 ft | 327 kts | 207° |
| 2026-05-04 12:00 | 38.96394 | -9.31814 | 18929 ft | 324 kts | 206° |
| 2026-05-04 12:00 | 38.94301 | -9.32870 | 18337 ft | 321 kts | 206° |
| 2026-05-04 12:00 | 38.92233 | -9.33912 | 17693 ft | 318 kts | 206° |
| 2026-05-04 12:01 | 38.90217 | -9.34921 | 17143 ft | 311 kts | 206° |
| 2026-05-04 12:01 | 38.88206 | -9.35925 | 16700 ft | 306 kts | 206° |
| 2026-05-04 12:02 | 38.76105 | -9.41981 | 16131 ft | 311 kts | 206° |
| 2026-05-04 12:03 | 38.74084 | -9.42992 | 16131 ft | 310 kts | 206° |
| 2026-05-04 12:03 | 38.72132 | -9.43962 | 16100 ft | 289 kts | 206° |
| 2026-05-04 12:03 | 38.70320 | -9.44859 | 16086 ft | 274 kts | 207° |
| 2026-05-04 12:03 | 38.68544 | -9.45748 | 16088 ft | 273 kts | 207° |
| 2026-05-04 12:04 | 38.66764 | -9.46644 | 15826 ft | 278 kts | 207° |
| 2026-05-04 12:04 | 38.64949 | -9.47559 | 15185 ft | 282 kts | 207° |
| 2026-05-04 12:04 | 38.63115 | -9.48480 | 14549 ft | 284 kts | 206° |
| 2026-05-04 12:04 | 38.61269 | -9.49403 | 13940 ft | 282 kts | 206° |
| 2026-05-04 12:05 | 38.59487 | -9.50290 | 13043 ft | 278 kts | 206° |
| 2026-05-04 12:05 | 38.57610 | -9.50970 | 11885 ft | 287 kts | 191° |
| 2026-05-04 12:05 | 38.55587 | -9.50737 | 10751 ft | 298 kts | 162° |
| 2026-05-04 12:05 | 38.53833 | -9.49304 | 9680 ft | 301 kts | 136° |
| 2026-05-04 12:06 | 38.52451 | -9.47309 | 8629 ft | 299 kts | 128° |
| 2026-05-04 12:06 | 38.51200 | -9.45231 | 7733 ft | 292 kts | 126° |
| 2026-05-04 12:06 | 38.50036 | -9.43145 | 6860 ft | 285 kts | 119° |
| 2026-05-04 12:06 | 38.49145 | -9.40952 | 6274 ft | 270 kts | 114° |
| 2026-05-04 12:07 | 38.48377 | -9.38830 | 5735 ft | 257 kts | 112° |
| 2026-05-04 12:07 | 38.47655 | -9.36801 | 5343 ft | 249 kts | 112° |
| 2026-05-04 12:07 | 38.47006 | -9.34760 | 4915 ft | 248 kts | 103° |
| 2026-05-04 12:07 | 38.46873 | -9.32627 | 4451 ft | 242 kts | 77° |
| 2026-05-04 12:08 | 38.47489 | -9.30739 | 4320 ft | 225 kts | 50° |
| 2026-05-04 12:08 | 38.48680 | -9.29465 | 4214 ft | 223 kts | 25° |
| 2026-05-04 12:08 | 38.50085 | -9.28608 | 4080 ft | 223 kts | 22° |
| 2026-05-04 12:08 | 38.51498 | -9.27805 | 3987 ft | 221 kts | 20° |
| 2026-05-04 12:09 | 38.52926 | -9.27044 | 3951 ft | 222 kts | 20° |
| 2026-05-04 12:09 | 38.54345 | -9.26292 | 3914 ft | 219 kts | 20° |
| 2026-05-04 12:09 | 38.55688 | -9.25575 | 3901 ft | 200 kts | 20° |
| 2026-05-04 12:09 | 38.56975 | -9.24891 | 3996 ft | 201 kts | 20° |
| 2026-05-04 12:10 | 38.58255 | -9.24213 | 4005 ft | 201 kts | 20° |
| 2026-05-04 12:10 | 38.59539 | -9.23531 | 3981 ft | 200 kts | 20° |
| 2026-05-04 12:10 | 38.60791 | -9.22862 | 3711 ft | 187 kts | 20° |
| 2026-05-04 12:10 | 38.61957 | -9.22240 | 3494 ft | 181 kts | 20° |
| 2026-05-04 12:11 | 38.63114 | -9.21623 | 3279 ft | 178 kts | 19° |
| 2026-05-04 12:11 | 38.64255 | -9.21014 | 3012 ft | 177 kts | 20° |
| 2026-05-04 12:11 | 38.65393 | -9.20408 | 2779 ft | 177 kts | 18° |
| 2026-05-04 12:11 | 38.66525 | -9.19806 | 2530 ft | 177 kts | 19° |
| 2026-05-04 12:12 | 38.67272 | -9.19406 | 2384 ft | 175 kts | 19° |
| 2026-05-04 12:12 | 38.68378 | -9.18813 | 2107 ft | 161 kts | 19° |
| 2026-05-04 12:12 | 38.69653 | -9.18128 | 1824 ft | 146 kts | 17° |
| 2026-05-04 12:12 | 38.70281 | -9.17793 | 1767 ft | 145 kts | 17° |
| 2026-05-04 12:13 | 38.71216 | -9.17274 | 1634 ft | 148 kts | 18° |
| 2026-05-04 12:14 | 38.77933 | -9.13700 | 366 ft | 89 kts | 23° |
| 2026-05-04 12:15 | 38.78321 | -9.13491 | 366 ft | 32 kts | 22° |
| 2026-05-04 12:15 | 38.78472 | -9.13409 | 366 ft | 12 kts | 22° |
| 2026-05-04 12:15 | 38.78534 | -9.13339 | 362 ft | 12 kts | 68° |
| 2026-05-04 12:15 | 38.78513 | -9.13255 | 363 ft | 9 kts | 139° |
| 2026-05-04 12:16 | 38.78446 | -9.13224 | 364 ft | 13 kts | 172° |
| 2026-05-04 12:16 | 38.78341 | -9.13253 | 363 ft | 16 kts | 201° |
| 2026-05-04 12:16 | 38.78236 | -9.13309 | 364 ft | 16 kts | 202° |
| 2026-05-04 12:16 | 38.78130 | -9.13366 | 368 ft | 16 kts | 203° |
| 2026-05-04 12:17 | 38.78030 | -9.13421 | 367 ft | 15 kts | 203° |
| 2026-05-04 12:17 | 38.77933 | -9.13471 | 364 ft | 14 kts | 202° |
| 2026-05-04 12:17 | 38.77844 | -9.13519 | 367 ft | 14 kts | 202° |
| 2026-05-04 12:17 | 38.77758 | -9.13564 | 367 ft | 14 kts | 202° |
| 2026-05-04 12:18 | 38.77664 | -9.13615 | 363 ft | 15 kts | 203° |
| 2026-05-04 12:18 | 38.77568 | -9.13667 | 362 ft | 15 kts | 202° |
| 2026-05-04 12:18 | 38.77473 | -9.13717 | 363 ft | 15 kts | 202° |
| 2026-05-04 12:18 | 38.77380 | -9.13767 | 362 ft | 14 kts | 202° |
| 2026-05-04 12:19 | 38.77291 | -9.13815 | 366 ft | 14 kts | 202° |
| 2026-05-04 12:19 | 38.77202 | -9.13863 | 367 ft | 14 kts | 203° |
| 2026-05-04 12:19 | 38.77113 | -9.13895 | 365 ft | 13 kts | 184° |
| 2026-05-04 12:19 | 38.77021 | -9.13880 | 364 ft | 14 kts | 169° |
| 2026-05-04 12:20 | 38.76928 | -9.13856 | 365 ft | 14 kts | 168° |
| 2026-05-04 12:20 | 38.76845 | -9.13833 | 363 ft | 8 kts | 168° |
| 2026-05-04 12:20 | 38.76801 | -9.13821 | 365 ft | 6 kts | 168° |
| 2026-05-04 12:20 | 38.76776 | -9.13812 | 365 ft | 1 kts | 150° |
| 2026-05-04 12:21 | 38.76772 | -9.13804 | 367 ft | 2 kts | 131° |
| 2026-05-04 12:21 | 38.76768 | -9.13780 | 364 ft | 3 kts | 95° |
| 2026-05-04 12:21 | 38.76772 | -9.13757 | 363 ft | 4 kts | 78° |
| 2026-05-04 12:21 | 38.76778 | -9.13720 | 366 ft | 2 kts | 78° |
| 2026-05-04 12:22 | 38.76779 | -9.13716 | 365 ft | 0 kts | 78° |